Americus, Missouri
Current Conditions -  °F | °C
As of 4:15 PM on Sunday 25 Jan 2015 (Local Time) from KFYG Reporting Station
Light Rain Light Rain  
Wind Chill: 30°   Ceiling: 1300
Heat Index: 39°   Visibility: 9mi
Dew Point: 36°   Wind: 17mph
Humidity: 87%   Direction: 350°N
Pressure: 29.76"   Gusts: 22mph
Location:  38.7604°N, 91.5317°W
Report Text: KFYG 252215Z AUTO 35015G19KT 9SM -RA OVC013 04/02 A2976 RMK AO2
Loading
Personal Weather Stations






























Interactive Weather Map New forecast layout! Learn more

10-Day Weather Forecast

Advertisements
Track Severe Weather on mobile